sensor_id;sensor_type;location;lat;lon;timestamp;P1;durP1;ratioP1;P2;durP2;ratioP2
18726;SDS011;9492;51.888;5.186;2022-07-09T00:00:42;15.30;;;11.47;;
18726;SDS011;9492;51.888;5.186;2022-07-09T00:03:08;12.83;;;10.93;;
18726;SDS011;9492;51.888;5.186;2022-07-09T00:05:34;13.20;;;11.77;;
18726;SDS011;9492;51.888;5.186;2022-07-09T00:08:00;12.20;;;11.00;;
18726;SDS011;9492;51.888;5.186;2022-07-09T00:10:26;12.47;;;11.37;;
18726;SDS011;9492;51.888;5.186;2022-07-09T00:12:52;14.23;;;11.10;;
18726;SDS011;9492;51.888;5.186;2022-07-09T00:15:18;14.00;;;12.30;;
18726;SDS011;9492;51.888;5.186;2022-07-09T00:17:44;13.33;;;12.03;;
18726;SDS011;9492;51.888;5.186;2022-07-09T00:20:10;12.40;;;11.10;;
18726;SDS011;9492;51.888;5.186;2022-07-09T00:22:36;13.57;;;11.60;;
18726;SDS011;9492;51.888;5.186;2022-07-09T00:25:03;15.40;;;11.27;;
18726;SDS011;9492;51.888;5.186;2022-07-09T00:27:29;13.93;;;12.40;;
18726;SDS011;9492;51.888;5.186;2022-07-09T00:29:55;13.00;;;11.80;;
18726;SDS011;9492;51.888;5.186;2022-07-09T00:32:21;14.10;;;12.60;;
18726;SDS011;9492;51.888;5.186;2022-07-09T00:34:47;12.23;;;11.07;;
18726;SDS011;9492;51.888;5.186;2022-07-09T00:37:13;13.87;;;12.40;;
18726;SDS011;9492;51.888;5.186;2022-07-09T00:39:39;14.13;;;12.70;;
18726;SDS011;9492;51.888;5.186;2022-07-09T00:42:06;14.87;;;13.17;;
18726;SDS011;9492;51.888;5.186;2022-07-09T00:44:32;14.77;;;13.00;;
18726;SDS011;9492;51.888;5.186;2022-07-09T00:46:58;16.60;;;13.50;;
18726;SDS011;9492;51.888;5.186;2022-07-09T00:49:24;16.27;;;13.53;;
18726;SDS011;9492;51.888;5.186;2022-07-09T00:51:51;16.07;;;14.50;;
18726;SDS011;9492;51.888;5.186;2022-07-09T00:54:17;15.43;;;13.83;;
18726;SDS011;9492;51.888;5.186;2022-07-09T00:56:43;17.57;;;14.67;;
18726;SDS011;9492;51.888;5.186;2022-07-09T00:59:09;15.57;;;13.60;;
18726;SDS011;9492;51.888;5.186;2022-07-09T01:01:37;16.30;;;14.60;;
18726;SDS011;9492;51.888;5.186;2022-07-09T01:04:03;15.87;;;14.13;;
18726;SDS011;9492;51.888;5.186;2022-07-09T01:06:30;17.90;;;14.40;;
18726;SDS011;9492;51.888;5.186;2022-07-09T01:08:56;15.37;;;13.90;;
18726;SDS011;9492;51.888;5.186;2022-07-09T01:11:22;16.50;;;14.83;;
18726;SDS011;9492;51.888;5.186;2022-07-09T01:13:49;16.93;;;14.87;;
18726;SDS011;9492;51.888;5.186;2022-07-09T01:16:16;16.20;;;14.70;;
18726;SDS011;9492;51.888;5.186;2022-07-09T01:18:45;16.70;;;15.10;;
18726;SDS011;9492;51.888;5.186;2022-07-09T01:21:12;16.00;;;14.30;;
18726;SDS011;9492;51.888;5.186;2022-07-09T01:23:38;16.90;;;15.03;;
18726;SDS011;9492;51.888;5.186;2022-07-09T01:26:04;16.50;;;14.80;;
18726;SDS011;9492;51.888;5.186;2022-07-09T01:28:30;16.40;;;14.97;;
18726;SDS011;9492;51.888;5.186;2022-07-09T01:30:56;16.30;;;14.60;;
18726;SDS011;9492;51.888;5.186;2022-07-09T01:33:22;16.67;;;15.07;;
18726;SDS011;9492;51.888;5.186;2022-07-09T01:35:49;17.77;;;16.07;;
18726;SDS011;9492;51.888;5.186;2022-07-09T01:38:15;17.77;;;15.97;;
18726;SDS011;9492;51.888;5.186;2022-07-09T01:40:41;17.53;;;15.83;;
18726;SDS011;9492;51.888;5.186;2022-07-09T01:43:07;18.53;;;16.50;;
18726;SDS011;9492;51.888;5.186;2022-07-09T01:45:33;18.93;;;17.03;;
18726;SDS011;9492;51.888;5.186;2022-07-09T01:47:59;18.80;;;16.77;;
18726;SDS011;9492;51.888;5.186;2022-07-09T01:50:28;17.97;;;16.13;;
18726;SDS011;9492;51.888;5.186;2022-07-09T01:52:54;18.03;;;16.23;;
18726;SDS011;9492;51.888;5.186;2022-07-09T01:55:19;17.57;;;15.73;;
18726;SDS011;9492;51.888;5.186;2022-07-09T01:57:45;16.80;;;15.10;;
18726;SDS011;9492;51.888;5.186;2022-07-09T02:00:11;17.90;;;15.27;;
18726;SDS011;9492;51.888;5.186;2022-07-09T02:02:38;16.33;;;14.73;;
18726;SDS011;9492;51.888;5.186;2022-07-09T02:05:04;18.53;;;15.93;;
18726;SDS011;9492;51.888;5.186;2022-07-09T02:07:30;16.30;;;14.80;;
18726;SDS011;9492;51.888;5.186;2022-07-09T02:09:57;18.00;;;16.10;;
18726;SDS011;9492;51.888;5.186;2022-07-09T02:12:23;16.97;;;15.17;;
18726;SDS011;9492;51.888;5.186;2022-07-09T02:14:49;17.43;;;15.67;;
18726;SDS011;9492;51.888;5.186;2022-07-09T02:17:15;19.57;;;17.47;;
18726;SDS011;9492;51.888;5.186;2022-07-09T02:19:41;19.27;;;17.17;;
18726;SDS011;9492;51.888;5.186;2022-07-09T02:22:07;18.73;;;16.93;;
18726;SDS011;9492;51.888;5.186;2022-07-09T02:24:33;20.87;;;18.80;;
18726;SDS011;9492;51.888;5.186;2022-07-09T02:26:59;22.00;;;18.03;;
18726;SDS011;9492;51.888;5.186;2022-07-09T02:29:25;21.07;;;18.87;;
18726;SDS011;9492;51.888;5.186;2022-07-09T02:31:52;22.00;;;19.80;;
18726;SDS011;9492;51.888;5.186;2022-07-09T02:34:20;20.43;;;18.23;;
18726;SDS011;9492;51.888;5.186;2022-07-09T02:36:46;20.43;;;18.23;;
18726;SDS011;9492;51.888;5.186;2022-07-09T02:39:12;19.57;;;17.33;;
18726;SDS011;9492;51.888;5.186;2022-07-09T02:41:38;20.47;;;18.10;;
18726;SDS011;9492;51.888;5.186;2022-07-09T02:44:04;19.73;;;17.67;;
18726;SDS011;9492;51.888;5.186;2022-07-09T02:46:30;20.67;;;18.40;;
18726;SDS011;9492;51.888;5.186;2022-07-09T02:48:56;18.37;;;16.50;;
18726;SDS011;9492;51.888;5.186;2022-07-09T02:51:22;19.43;;;17.53;;
18726;SDS011;9492;51.888;5.186;2022-07-09T02:53:48;19.60;;;16.83;;
18726;SDS011;9492;51.888;5.186;2022-07-09T02:56:14;19.50;;;16.27;;
18726;SDS011;9492;51.888;5.186;2022-07-09T02:58:40;18.63;;;16.30;;
18726;SDS011;9492;51.888;5.186;2022-07-09T03:01:06;18.77;;;15.80;;
18726;SDS011;9492;51.888;5.186;2022-07-09T03:03:33;17.80;;;15.87;;
18726;SDS011;9492;51.888;5.186;2022-07-09T03:06:01;17.67;;;15.63;;
18726;SDS011;9492;51.888;5.186;2022-07-09T03:08:27;18.13;;;15.93;;
18726;SDS011;9492;51.888;5.186;2022-07-09T03:10:53;18.57;;;16.33;;
18726;SDS011;9492;51.888;5.186;2022-07-09T03:13:19;19.73;;;16.10;;
18726;SDS011;9492;51.888;5.186;2022-07-09T03:15:45;17.83;;;15.93;;
18726;SDS011;9492;51.888;5.186;2022-07-09T03:18:11;18.27;;;16.33;;
18726;SDS011;9492;51.888;5.186;2022-07-09T03:20:38;18.73;;;16.73;;
18726;SDS011;9492;51.888;5.186;2022-07-09T03:23:04;18.77;;;16.77;;
18726;SDS011;9492;51.888;5.186;2022-07-09T03:25:31;17.03;;;15.43;;
18726;SDS011;9492;51.888;5.186;2022-07-09T03:27:57;19.73;;;17.63;;
18726;SDS011;9492;51.888;5.186;2022-07-09T03:30:23;17.80;;;16.00;;
18726;SDS011;9492;51.888;5.186;2022-07-09T03:32:49;16.90;;;15.20;;
18726;SDS011;9492;51.888;5.186;2022-07-09T03:35:15;17.73;;;15.83;;
18726;SDS011;9492;51.888;5.186;2022-07-09T03:37:41;16.57;;;14.47;;
18726;SDS011;9492;51.888;5.186;2022-07-09T03:40:07;16.30;;;14.80;;
18726;SDS011;9492;51.888;5.186;2022-07-09T03:42:34;16.90;;;15.33;;
18726;SDS011;9492;51.888;5.186;2022-07-09T03:45:02;17.77;;;15.77;;
18726;SDS011;9492;51.888;5.186;2022-07-09T03:47:29;18.03;;;16.20;;
18726;SDS011;9492;51.888;5.186;2022-07-09T03:49:55;16.17;;;14.50;;
18726;SDS011;9492;51.888;5.186;2022-07-09T03:52:21;19.20;;;17.20;;
18726;SDS011;9492;51.888;5.186;2022-07-09T03:54:47;18.67;;;16.67;;
18726;SDS011;9492;51.888;5.186;2022-07-09T03:57:13;18.47;;;16.67;;
18726;SDS011;9492;51.888;5.186;2022-07-09T03:59:39;17.17;;;15.37;;
18726;SDS011;9492;51.888;5.186;2022-07-09T04:02:05;18.97;;;16.97;;
18726;SDS011;9492;51.888;5.186;2022-07-09T04:04:31;18.43;;;16.43;;
18726;SDS011;9492;51.888;5.186;2022-07-09T04:06:57;19.17;;;17.37;;
18726;SDS011;9492;51.888;5.186;2022-07-09T04:09:23;19.50;;;17.10;;
18726;SDS011;9492;51.888;5.186;2022-07-09T04:11:49;18.23;;;16.40;;
18726;SDS011;9492;51.888;5.186;2022-07-09T04:14:15;19.47;;;17.47;;
18726;SDS011;9492;51.888;5.186;2022-07-09T04:16:41;20.80;;;18.60;;
18726;SDS011;9492;51.888;5.186;2022-07-09T04:19:07;20.77;;;18.57;;
18726;SDS011;9492;51.888;5.186;2022-07-09T04:21:33;19.47;;;17.50;;
18726;SDS011;9492;51.888;5.186;2022-07-09T04:23:59;21.27;;;19.07;;
18726;SDS011;9492;51.888;5.186;2022-07-09T04:26:25;22.30;;;18.80;;
18726;SDS011;9492;51.888;5.186;2022-07-09T04:28:51;21.63;;;19.27;;
18726;SDS011;9492;51.888;5.186;2022-07-09T04:31:18;20.87;;;17.93;;
18726;SDS011;9492;51.888;5.186;2022-07-09T04:33:46;20.40;;;18.30;;
18726;SDS011;9492;51.888;5.186;2022-07-09T04:36:12;19.57;;;17.57;;
18726;SDS011;9492;51.888;5.186;2022-07-09T04:38:38;18.33;;;16.53;;
18726;SDS011;9492;51.888;5.186;2022-07-09T04:41:04;19.10;;;15.30;;
18726;SDS011;9492;51.888;5.186;2022-07-09T04:43:31;21.03;;;17.53;;
18726;SDS011;9492;51.888;5.186;2022-07-09T04:45:57;19.37;;;17.37;;
18726;SDS011;9492;51.888;5.186;2022-07-09T04:48:24;19.67;;;17.67;;
18726;SDS011;9492;51.888;5.186;2022-07-09T04:50:50;19.67;;;17.57;;
18726;SDS011;9492;51.888;5.186;2022-07-09T04:53:16;18.03;;;16.27;;
18726;SDS011;9492;51.888;5.186;2022-07-09T04:55:41;19.67;;;17.57;;
18726;SDS011;9492;51.888;5.186;2022-07-09T04:58:08;20.33;;;18.17;;
18726;SDS011;9492;51.888;5.186;2022-07-09T05:00:34;19.63;;;17.53;;
18726;SDS011;9492;51.888;5.186;2022-07-09T05:03:00;19.20;;;17.27;;
18726;SDS011;9492;51.888;5.186;2022-07-09T05:05:26;18.23;;;16.30;;
18726;SDS011;9492;51.888;5.186;2022-07-09T05:07:52;21.00;;;18.80;;
18726;SDS011;9492;51.888;5.186;2022-07-09T05:10:18;19.97;;;17.20;;
18726;SDS011;9492;51.888;5.186;2022-07-09T05:12:45;17.50;;;15.63;;
18726;SDS011;9492;51.888;5.186;2022-07-09T05:15:11;18.53;;;16.73;;
18726;SDS011;9492;51.888;5.186;2022-07-09T05:17:37;20.60;;;17.43;;
18726;SDS011;9492;51.888;5.186;2022-07-09T05:20:04;17.63;;;15.67;;
18726;SDS011;9492;51.888;5.186;2022-07-09T05:22:31;18.37;;;16.47;;
18726;SDS011;9492;51.888;5.186;2022-07-09T05:24:57;17.63;;;15.93;;
18726;SDS011;9492;51.888;5.186;2022-07-09T05:27:24;17.93;;;15.97;;
18726;SDS011;9492;51.888;5.186;2022-07-09T05:29:50;18.20;;;16.30;;
18726;SDS011;9492;51.888;5.186;2022-07-09T05:32:16;18.43;;;16.70;;
18726;SDS011;9492;51.888;5.186;2022-07-09T05:34:42;18.10;;;15.47;;
18726;SDS011;9492;51.888;5.186;2022-07-09T05:37:08;17.43;;;15.67;;
18726;SDS011;9492;51.888;5.186;2022-07-09T05:39:34;19.10;;;16.83;;
18726;SDS011;9492;51.888;5.186;2022-07-09T05:42:00;15.93;;;14.43;;
18726;SDS011;9492;51.888;5.186;2022-07-09T05:44:26;17.03;;;15.33;;
18726;SDS011;9492;51.888;5.186;2022-07-09T05:46:52;16.47;;;14.73;;
18726;SDS011;9492;51.888;5.186;2022-07-09T05:49:18;17.90;;;16.00;;
18726;SDS011;9492;51.888;5.186;2022-07-09T05:51:44;18.13;;;16.37;;
18726;SDS011;9492;51.888;5.186;2022-07-09T05:54:10;17.30;;;15.53;;
18726;SDS011;9492;51.888;5.186;2022-07-09T05:56:36;18.20;;;16.50;;
18726;SDS011;9492;51.888;5.186;2022-07-09T05:59:03;21.00;;;16.83;;
18726;SDS011;9492;51.888;5.186;2022-07-09T06:01:29;16.97;;;15.37;;
18726;SDS011;9492;51.888;5.186;2022-07-09T06:03:58;16.50;;;14.77;;
18726;SDS011;9492;51.888;5.186;2022-07-09T06:06:24;17.10;;;15.47;;
18726;SDS011;9492;51.888;5.186;2022-07-09T06:08:50;15.20;;;13.90;;
18726;SDS011;9492;51.888;5.186;2022-07-09T06:11:16;15.93;;;14.40;;
18726;SDS011;9492;51.888;5.186;2022-07-09T06:13:42;15.37;;;13.87;;
18726;SDS011;9492;51.888;5.186;2022-07-09T06:16:08;15.07;;;13.77;;
18726;SDS011;9492;51.888;5.186;2022-07-09T06:18:34;13.73;;;12.53;;
18726;SDS011;9492;51.888;5.186;2022-07-09T06:21:00;14.57;;;13.17;;
18726;SDS011;9492;51.888;5.186;2022-07-09T06:23:26;15.83;;;14.40;;
18726;SDS011;9492;51.888;5.186;2022-07-09T06:25:52;15.40;;;13.97;;
18726;SDS011;9492;51.888;5.186;2022-07-09T06:28:18;14.03;;;12.67;;
18726;SDS011;9492;51.888;5.186;2022-07-09T06:30:44;14.10;;;12.67;;
18726;SDS011;9492;51.888;5.186;2022-07-09T06:33:10;13.80;;;12.70;;
18726;SDS011;9492;51.888;5.186;2022-07-09T06:35:36;13.90;;;12.60;;
18726;SDS011;9492;51.888;5.186;2022-07-09T06:38:02;12.53;;;11.43;;
18726;SDS011;9492;51.888;5.186;2022-07-09T06:40:29;13.07;;;11.67;;
18726;SDS011;9492;51.888;5.186;2022-07-09T06:42:55;13.13;;;11.77;;
18726;SDS011;9492;51.888;5.186;2022-07-09T06:45:21;12.50;;;11.30;;
18726;SDS011;9492;51.888;5.186;2022-07-09T06:47:47;10.93;;;9.83;;
18726;SDS011;9492;51.888;5.186;2022-07-09T06:50:14;10.60;;;9.60;;
18726;SDS011;9492;51.888;5.186;2022-07-09T06:52:40;10.67;;;9.77;;
18726;SDS011;9492;51.888;5.186;2022-07-09T06:55:06;9.60;;;8.80;;
18726;SDS011;9492;51.888;5.186;2022-07-09T06:57:32;9.50;;;8.07;;
18726;SDS011;9492;51.888;5.186;2022-07-09T06:59:59;8.93;;;8.03;;
18726;SDS011;9492;51.888;5.186;2022-07-09T07:02:26;9.00;;;8.10;;
18726;SDS011;9492;51.888;5.186;2022-07-09T07:04:52;10.57;;;8.47;;
18726;SDS011;9492;51.888;5.186;2022-07-09T07:07:18;8.50;;;7.67;;
18726;SDS011;9492;51.888;5.186;2022-07-09T07:09:45;10.83;;;7.93;;
18726;SDS011;9492;51.888;5.186;2022-07-09T07:12:11;8.30;;;7.03;;
18726;SDS011;9492;51.888;5.186;2022-07-09T07:14:37;8.63;;;7.73;;
18726;SDS011;9492;51.888;5.186;2022-07-09T07:17:03;9.50;;;7.90;;
18726;SDS011;9492;51.888;5.186;2022-07-09T07:19:29;10.27;;;8.97;;
18726;SDS011;9492;51.888;5.186;2022-07-09T07:21:55;12.53;;;9.97;;
18726;SDS011;9492;51.888;5.186;2022-07-09T07:24:21;13.03;;;9.73;;
18726;SDS011;9492;51.888;5.186;2022-07-09T07:26:47;10.63;;;9.37;;
18726;SDS011;9492;51.888;5.186;2022-07-09T07:29:13;11.23;;;9.57;;
18726;SDS011;9492;51.888;5.186;2022-07-09T07:31:39;12.43;;;9.97;;
18726;SDS011;9492;51.888;5.186;2022-07-09T07:34:05;11.40;;;10.23;;
18726;SDS011;9492;51.888;5.186;2022-07-09T07:36:31;9.90;;;8.90;;
18726;SDS011;9492;51.888;5.186;2022-07-09T07:38:59;11.10;;;10.03;;
18726;SDS011;9492;51.888;5.186;2022-07-09T07:41:25;10.93;;;8.77;;
18726;SDS011;9492;51.888;5.186;2022-07-09T07:43:51;10.83;;;9.80;;
18726;SDS011;9492;51.888;5.186;2022-07-09T07:46:17;11.43;;;9.33;;
18726;SDS011;9492;51.888;5.186;2022-07-09T07:48:43;11.87;;;10.67;;
18726;SDS011;9492;51.888;5.186;2022-07-09T07:51:09;11.57;;;10.50;;
18726;SDS011;9492;51.888;5.186;2022-07-09T07:53:35;11.17;;;9.80;;
18726;SDS011;9492;51.888;5.186;2022-07-09T07:56:05;11.90;;;10.67;;
18726;SDS011;9492;51.888;5.186;2022-07-09T07:58:31;13.20;;;11.50;;
18726;SDS011;9492;51.888;5.186;2022-07-09T08:00:58;12.88;;;11.77;;
18726;SDS011;9492;51.888;5.186;2022-07-09T08:03:23;12.87;;;11.57;;
18726;SDS011;9492;51.888;5.186;2022-07-09T08:05:50;12.53;;;11.00;;
18726;SDS011;9492;51.888;5.186;2022-07-09T08:08:16;14.93;;;12.33;;
18726;SDS011;9492;51.888;5.186;2022-07-09T08:10:43;12.73;;;11.53;;
18726;SDS011;9492;51.888;5.186;2022-07-09T08:13:09;14.10;;;12.77;;
18726;SDS011;9492;51.888;5.186;2022-07-09T08:15:36;14.67;;;13.07;;
18726;SDS011;9492;51.888;5.186;2022-07-09T08:18:03;13.57;;;12.17;;
18726;SDS011;9492;51.888;5.186;2022-07-09T08:20:29;14.57;;;13.20;;
18726;SDS011;9492;51.888;5.186;2022-07-09T08:22:55;14.53;;;13.23;;
18726;SDS011;9492;51.888;5.186;2022-07-09T08:25:21;14.60;;;13.20;;
18726;SDS011;9492;51.888;5.186;2022-07-09T08:27:47;12.47;;;11.20;;
18726;SDS011;9492;51.888;5.186;2022-07-09T08:30:14;13.27;;;11.87;;
18726;SDS011;9492;51.888;5.186;2022-07-09T08:32:40;13.40;;;11.23;;
18726;SDS011;9492;51.888;5.186;2022-07-09T08:35:06;13.60;;;11.30;;
18726;SDS011;9492;51.888;5.186;2022-07-09T08:37:33;14.00;;;12.47;;
18726;SDS011;9492;51.888;5.186;2022-07-09T08:39:59;12.33;;;11.17;;
18726;SDS011;9492;51.888;5.186;2022-07-09T08:42:27;10.77;;;9.67;;
18726;SDS011;9492;51.888;5.186;2022-07-09T08:44:53;10.50;;;9.20;;
18726;SDS011;9492;51.888;5.186;2022-07-09T08:47:19;10.43;;;9.37;;
18726;SDS011;9492;51.888;5.186;2022-07-09T08:49:46;10.57;;;9.40;;
18726;SDS011;9492;51.888;5.186;2022-07-09T08:52:12;9.20;;;8.23;;
18726;SDS011;9492;51.888;5.186;2022-07-09T08:54:39;8.27;;;7.47;;
18726;SDS011;9492;51.888;5.186;2022-07-09T08:57:07;12.50;;;7.43;;
18726;SDS011;9492;51.888;5.186;2022-07-09T08:59:33;8.97;;;7.37;;
18726;SDS011;9492;51.888;5.186;2022-07-09T09:02:05;7.83;;;6.50;;
18726;SDS011;9492;51.888;5.186;2022-07-09T09:04:33;8.10;;;7.30;;
18726;SDS011;9492;51.888;5.186;2022-07-09T09:07:19;9.50;;;8.50;;
18726;SDS011;9492;51.888;5.186;2022-07-09T09:09:48;9.10;;;7.10;;
18726;SDS011;9492;51.888;5.186;2022-07-09T09:12:14;7.50;;;6.43;;
18726;SDS011;9492;51.888;5.186;2022-07-09T09:14:47;7.83;;;6.20;;
18726;SDS011;9492;51.888;5.186;2022-07-09T09:17:14;10.23;;;6.90;;
18726;SDS011;9492;51.888;5.186;2022-07-09T09:19:40;8.10;;;6.00;;
18726;SDS011;9492;51.888;5.186;2022-07-09T09:22:07;7.27;;;5.63;;
18726;SDS011;9492;51.888;5.186;2022-07-09T09:24:36;5.27;;;4.87;;
18726;SDS011;9492;51.888;5.186;2022-07-09T09:27:02;5.60;;;4.90;;
18726;SDS011;9492;51.888;5.186;2022-07-09T09:29:28;5.67;;;4.27;;
18726;SDS011;9492;51.888;5.186;2022-07-09T09:31:55;4.93;;;4.50;;
18726;SDS011;9492;51.888;5.186;2022-07-09T09:34:21;4.67;;;4.17;;
18726;SDS011;9492;51.888;5.186;2022-07-09T09:36:48;5.23;;;3.63;;
18726;SDS011;9492;51.888;5.186;2022-07-09T09:41:51;7.23;;;4.90;;
18726;SDS011;9492;51.888;5.186;2022-07-09T09:44:21;4.83;;;4.33;;
18726;SDS011;9492;51.888;5.186;2022-07-09T09:46:49;16.30;;;10.80;;
18726;SDS011;9492;51.888;5.186;2022-07-09T09:49:15;6.93;;;5.20;;
18726;SDS011;9492;51.888;5.186;2022-07-09T09:54:13;4.40;;;3.43;;
18726;SDS011;9492;51.888;5.186;2022-07-09T09:56:40;5.00;;;4.40;;
18726;SDS011;9492;51.888;5.186;2022-07-09T09:59:06;4.80;;;2.87;;
18726;SDS011;9492;51.888;5.186;2022-07-09T10:01:32;6.07;;;3.30;;
18726;SDS011;9492;51.888;5.186;2022-07-09T10:03:58;2.17;;;1.97;;
18726;SDS011;9492;51.888;5.186;2022-07-09T10:06:24;4.87;;;2.50;;
18726;SDS011;9492;51.888;5.186;2022-07-09T10:08:51;3.93;;;2.77;;
18726;SDS011;9492;51.888;5.186;2022-07-09T10:11:18;1.43;;;1.27;;
18726;SDS011;9492;51.888;5.186;2022-07-09T10:13:54;4.30;;;1.30;;
18726;SDS011;9492;51.888;5.186;2022-07-09T10:18:59;2.23;;;1.60;;
18726;SDS011;9492;51.888;5.186;2022-07-09T10:21:39;1.70;;;1.20;;
18726;SDS011;9492;51.888;5.186;2022-07-09T10:24:05;3.27;;;1.40;;
18726;SDS011;9492;51.888;5.186;2022-07-09T10:26:36;1.80;;;1.60;;
18726;SDS011;9492;51.888;5.186;2022-07-09T10:31:46;1.50;;;1.33;;
18726;SDS011;9492;51.888;5.186;2022-07-09T10:36:58;2.50;;;1.23;;
18726;SDS011;9492;51.888;5.186;2022-07-09T10:39:24;3.13;;;1.27;;
18726;SDS011;9492;51.888;5.186;2022-07-09T10:42:04;2.00;;;1.10;;
18726;SDS011;9492;51.888;5.186;2022-07-09T10:44:34;2.13;;;1.10;;
18726;SDS011;9492;51.888;5.186;2022-07-09T10:47:00;2.60;;;1.10;;
18726;SDS011;9492;51.888;5.186;2022-07-09T10:49:26;2.60;;;1.00;;
18726;SDS011;9492;51.888;5.186;2022-07-09T10:52:02;1.73;;;1.10;;
18726;SDS011;9492;51.888;5.186;2022-07-09T10:54:28;2.47;;;1.20;;
18726;SDS011;9492;51.888;5.186;2022-07-09T10:56:54;2.20;;;1.43;;
18726;SDS011;9492;51.888;5.186;2022-07-09T10:59:21;5.93;;;1.43;;
18726;SDS011;9492;51.888;5.186;2022-07-09T11:01:47;13.93;;;2.07;;
18726;SDS011;9492;51.888;5.186;2022-07-09T11:04:25;3.80;;;1.10;;
18726;SDS011;9492;51.888;5.186;2022-07-09T11:06:51;3.40;;;0.90;;
18726;SDS011;9492;51.888;5.186;2022-07-09T11:09:17;1.07;;;0.90;;
18726;SDS011;9492;51.888;5.186;2022-07-09T11:11:43;1.60;;;1.10;;
18726;SDS011;9492;51.888;5.186;2022-07-09T11:14:10;2.30;;;0.83;;
18726;SDS011;9492;51.888;5.186;2022-07-09T11:16:36;0.90;;;0.90;;
18726;SDS011;9492;51.888;5.186;2022-07-09T11:19:12;0.80;;;0.80;;
18726;SDS011;9492;51.888;5.186;2022-07-09T11:21:38;2.23;;;0.97;;
18726;SDS011;9492;51.888;5.186;2022-07-09T11:24:11;2.50;;;0.87;;
18726;SDS011;9492;51.888;5.186;2022-07-09T11:26:38;0.97;;;0.90;;
18726;SDS011;9492;51.888;5.186;2022-07-09T11:29:06;1.27;;;1.00;;
18726;SDS011;9492;51.888;5.186;2022-07-09T11:31:32;3.43;;;1.20;;
18726;SDS011;9492;51.888;5.186;2022-07-09T11:33:58;0.70;;;0.70;;
18726;SDS011;9492;51.888;5.186;2022-07-09T11:36:37;0.63;;;0.63;;
18726;SDS011;9492;51.888;5.186;2022-07-09T11:39:03;0.70;;;0.70;;
18726;SDS011;9492;51.888;5.186;2022-07-09T11:41:39;1.07;;;0.70;;
18726;SDS011;9492;51.888;5.186;2022-07-09T11:44:05;0.97;;;0.63;;
18726;SDS011;9492;51.888;5.186;2022-07-09T11:46:31;0.70;;;0.70;;
18726;SDS011;9492;51.888;5.186;2022-07-09T11:48:57;1.47;;;0.87;;
18726;SDS011;9492;51.888;5.186;2022-07-09T11:51:30;0.70;;;0.70;;
18726;SDS011;9492;51.888;5.186;2022-07-09T11:53:56;0.80;;;0.80;;
18726;SDS011;9492;51.888;5.186;2022-07-09T11:56:22;1.27;;;0.90;;
18726;SDS011;9492;51.888;5.186;2022-07-09T11:58:49;1.90;;;1.07;;
18726;SDS011;9492;51.888;5.186;2022-07-09T12:01:15;1.37;;;0.97;;
18726;SDS011;9492;51.888;5.186;2022-07-09T12:03:46;1.57;;;0.83;;
18726;SDS011;9492;51.888;5.186;2022-07-09T12:06:12;0.97;;;0.87;;
18726;SDS011;9492;51.888;5.186;2022-07-09T12:08:39;4.93;;;1.30;;
18726;SDS011;9492;51.888;5.186;2022-07-09T12:11:05;1.43;;;1.27;;
18726;SDS011;9492;51.888;5.186;2022-07-09T12:13:31;7.13;;;3.67;;
18726;SDS011;9492;51.888;5.186;2022-07-09T12:15:57;32.67;;;21.43;;
18726;SDS011;9492;51.888;5.186;2022-07-09T12:18:23;3.97;;;1.03;;
18726;SDS011;9492;51.888;5.186;2022-07-09T12:20:49;2.30;;;1.13;;
18726;SDS011;9492;51.888;5.186;2022-07-09T12:23:15;1.27;;;1.00;;
18726;SDS011;9492;51.888;5.186;2022-07-09T12:25:41;10.60;;;2.47;;
18726;SDS011;9492;51.888;5.186;2022-07-09T12:28:07;2.20;;;1.00;;
18726;SDS011;9492;51.888;5.186;2022-07-09T12:30:34;2.17;;;0.90;;
18726;SDS011;9492;51.888;5.186;2022-07-09T12:33:00;2.40;;;0.80;;
18726;SDS011;9492;51.888;5.186;2022-07-09T12:35:26;2.47;;;1.30;;
18726;SDS011;9492;51.888;5.186;2022-07-09T12:37:53;4.83;;;1.10;;
18726;SDS011;9492;51.888;5.186;2022-07-09T12:40:21;4.33;;;1.17;;
18726;SDS011;9492;51.888;5.186;2022-07-09T12:42:47;6.73;;;1.57;;
18726;SDS011;9492;51.888;5.186;2022-07-09T12:45:13;3.87;;;1.80;;
18726;SDS011;9492;51.888;5.186;2022-07-09T12:47:39;16.73;;;10.17;;
18726;SDS011;9492;51.888;5.186;2022-07-09T12:50:05;33.77;;;21.33;;
18726;SDS011;9492;51.888;5.186;2022-07-09T12:52:31;29.47;;;15.90;;
18726;SDS011;9492;51.888;5.186;2022-07-09T12:54:58;6.17;;;2.17;;
18726;SDS011;9492;51.888;5.186;2022-07-09T12:57:25;2.60;;;1.27;;
18726;SDS011;9492;51.888;5.186;2022-07-09T12:59:51;6.23;;;1.87;;
18726;SDS011;9492;51.888;5.186;2022-07-09T13:02:17;2.60;;;1.60;;
18726;SDS011;9492;51.888;5.186;2022-07-09T13:04:43;2.67;;;1.37;;
18726;SDS011;9492;51.888;5.186;2022-07-09T13:07:09;5.80;;;1.93;;
18726;SDS011;9492;51.888;5.186;2022-07-09T13:09:35;3.47;;;2.13;;
18726;SDS011;9492;51.888;5.186;2022-07-09T13:12:02;3.93;;;2.17;;
18726;SDS011;9492;51.888;5.186;2022-07-09T13:14:28;6.03;;;2.60;;
18726;SDS011;9492;51.888;5.186;2022-07-09T13:16:54;8.97;;;7.23;;
18726;SDS011;9492;51.888;5.186;2022-07-09T13:19:20;5.13;;;3.07;;
18726;SDS011;9492;51.888;5.186;2022-07-09T13:21:46;5.23;;;4.17;;
18726;SDS011;9492;51.888;5.186;2022-07-09T13:24:12;7.40;;;4.40;;
18726;SDS011;9492;51.888;5.186;2022-07-09T13:26:38;5.63;;;2.63;;
18726;SDS011;9492;51.888;5.186;2022-07-09T13:29:04;3.73;;;2.23;;
18726;SDS011;9492;51.888;5.186;2022-07-09T13:31:30;13.03;;;7.23;;
18726;SDS011;9492;51.888;5.186;2022-07-09T13:33:56;4.37;;;2.43;;
18726;SDS011;9492;51.888;5.186;2022-07-09T13:36:22;4.03;;;1.60;;
18726;SDS011;9492;51.888;5.186;2022-07-09T13:38:48;3.83;;;1.40;;
18726;SDS011;9492;51.888;5.186;2022-07-09T13:41:14;4.20;;;2.30;;
18726;SDS011;9492;51.888;5.186;2022-07-09T13:43:42;8.97;;;5.10;;
18726;SDS011;9492;51.888;5.186;2022-07-09T13:46:08;6.93;;;3.00;;
18726;SDS011;9492;51.888;5.186;2022-07-09T13:48:33;3.43;;;1.20;;
18726;SDS011;9492;51.888;5.186;2022-07-09T13:50:59;3.53;;;1.67;;
18726;SDS011;9492;51.888;5.186;2022-07-09T13:53:25;2.27;;;1.30;;
18726;SDS011;9492;51.888;5.186;2022-07-09T13:55:53;2.73;;;1.53;;
18726;SDS011;9492;51.888;5.186;2022-07-09T13:58:19;1.93;;;1.17;;
18726;SDS011;9492;51.888;5.186;2022-07-09T14:00:45;6.50;;;3.90;;
18726;SDS011;9492;51.888;5.186;2022-07-09T14:03:11;7.60;;;3.90;;
18726;SDS011;9492;51.888;5.186;2022-07-09T14:05:37;3.40;;;1.37;;
18726;SDS011;9492;51.888;5.186;2022-07-09T14:08:04;4.57;;;1.40;;
18726;SDS011;9492;51.888;5.186;2022-07-09T14:10:30;3.97;;;1.57;;
18726;SDS011;9492;51.888;5.186;2022-07-09T14:12:57;1.97;;;1.40;;
18726;SDS011;9492;51.888;5.186;2022-07-09T14:15:23;1.67;;;1.33;;
18726;SDS011;9492;51.888;5.186;2022-07-09T14:17:50;2.67;;;1.20;;
18726;SDS011;9492;51.888;5.186;2022-07-09T14:20:17;2.67;;;1.37;;
18726;SDS011;9492;51.888;5.186;2022-07-09T14:22:44;3.37;;;1.17;;
18726;SDS011;9492;51.888;5.186;2022-07-09T14:25:10;3.63;;;1.17;;
18726;SDS011;9492;51.888;5.186;2022-07-09T14:27:36;3.70;;;1.30;;
18726;SDS011;9492;51.888;5.186;2022-07-09T14:30:02;3.03;;;1.40;;
18726;SDS011;9492;51.888;5.186;2022-07-09T14:32:28;2.43;;;1.37;;
18726;SDS011;9492;51.888;5.186;2022-07-09T14:34:54;3.03;;;1.53;;
18726;SDS011;9492;51.888;5.186;2022-07-09T14:37:20;4.27;;;1.57;;
18726;SDS011;9492;51.888;5.186;2022-07-09T14:39:46;3.27;;;1.37;;
18726;SDS011;9492;51.888;5.186;2022-07-09T14:42:12;4.17;;;1.50;;
18726;SDS011;9492;51.888;5.186;2022-07-09T14:44:38;5.40;;;1.77;;
18726;SDS011;9492;51.888;5.186;2022-07-09T14:47:04;5.77;;;1.93;;
18726;SDS011;9492;51.888;5.186;2022-07-09T14:49:30;4.00;;;1.50;;
18726;SDS011;9492;51.888;5.186;2022-07-09T14:51:56;7.13;;;1.60;;
18726;SDS011;9492;51.888;5.186;2022-07-09T14:54:22;4.13;;;1.57;;